KLBF/LBF METAR and TAF weather

Enter ICAO airport designator
Station Type Date Time Source
KLBF METAR 2023/01/30 09:53 UTC NOAA

KLBF 300953Z AUTO 00000KT 6SM -SN BR BKN034 OVC090 M18/M21 A3036 RMK AO2 SNB33 SLP347 P0000 T11831206


Station Type Date Time Source
KLBF Decoded METAR 2023/01/30 09:53 UTC NOAA

NORTH PLATTE REGIONAL AIRPORT , NE, United States (KLBF) 41-07N 100-40W 847M
Jan 30, 2023 - 04:53 AM EST / 2023.01.30 0953 UTC
Wind: Calm:0
Visibility: 6 mile(s):0
Sky conditions: overcast
Weather: light snow; mist
Precipitation last hour: A trace
Temperature: -0.9 F (-18.3 C)
Dew Point: -5.1 F (-20.6 C)
Relative Humidity: 82%
Pressure (altimeter): 30.36 in. Hg (1028 hPa)
ob: KLBF 300953Z AUTO 00000KT 6SM -SN BR BKN034 OVC090 M18/M21 A3036 RMK AO2 SNB33 SLP347 P0000 T11831206
cycle: 10

Station Type Date Time Source
KLBF TAF 2023/01/30 06:22 UTC NOAA

TAF KLBF 300520Z 3006/3106 35005KT 2SM -SN OVC025
TEMPO 3006/3008 1 1/2SM -SN OVC025
FM300800 VRB04KT 3SM -SN OVC025
FM300900 VRB04KT 5SM -SN OVC035
FM301500 VRB03KT P6SM OVC040
FM302000 22007KT P6SM BKN040

Example: see airport list